createdAt,value
2023-12-20T00:00:17.302Z,23.85
2023-12-20T00:03:20.746Z,24.98
2023-12-20T00:06:25.623Z,24.27
2023-12-20T00:09:29.312Z,24.08
2023-12-20T00:12:33.271Z,23.70
2023-12-20T00:15:36.819Z,23.65
2023-12-20T00:18:40.341Z,24.15
2023-12-20T00:21:45.173Z,25.10
2023-12-20T00:24:48.706Z,25.38
2023-12-20T00:27:52.252Z,24.92
2023-12-20T00:30:55.843Z,24.85
2023-12-20T00:33:59.492Z,26.15
2023-12-20T00:37:04.962Z,25.65
2023-12-20T00:40:09.441Z,25.63
2023-12-20T00:43:13.217Z,25.00
2023-12-20T00:46:16.821Z,25.85
2023-12-20T00:49:20.491Z,24.67
2023-12-20T00:52:25.379Z,24.35
2023-12-20T00:55:28.858Z,24.00
2023-12-20T00:58:32.680Z,23.73
2023-12-20T01:01:36.210Z,24.20
2023-12-20T01:04:39.999Z,24.42
2023-12-20T01:07:45.255Z,24.98
2023-12-20T01:10:48.927Z,24.70
2023-12-20T01:13:52.561Z,24.08
2023-12-20T01:16:56.281Z,23.48
2023-12-20T01:20:00.315Z,23.52
2023-12-20T01:23:05.702Z,23.70
2023-12-20T01:26:09.237Z,23.00
2023-12-20T01:29:13.320Z,22.58
2023-12-20T01:32:17.093Z,22.52
2023-12-20T01:35:20.652Z,22.75
2023-12-20T01:38:25.581Z,23.52
2023-12-20T01:41:29.238Z,21.00
2023-12-20T01:44:33.558Z,20.52
2023-12-20T01:47:37.977Z,19.83
2023-12-20T01:50:42.180Z,18.65
2023-12-20T01:53:47.295Z,18.17
2023-12-20T01:56:52.040Z,18.55
2023-12-20T01:59:55.771Z,17.48
2023-12-20T02:03:03.535Z,18.45
2023-12-20T02:06:07.573Z,18.23
2023-12-20T02:09:12.490Z,18.35
2023-12-20T02:12:16.012Z,19.50
2023-12-20T02:15:19.854Z,21.10
2023-12-20T02:18:23.796Z,19.70
2023-12-20T02:21:35.422Z,19.10
2023-12-20T02:24:39.285Z,18.00
2023-12-20T02:27:43.402Z,17.08
2023-12-20T02:30:47.268Z,17.10
2023-12-20T02:33:51.001Z,16.55
2023-12-20T02:36:56.376Z,18.05
2023-12-20T02:39:59.964Z,17.25
2023-12-20T02:43:04.221Z,17.30
2023-12-20T02:46:07.830Z,18.52
2023-12-20T02:49:11.437Z,20.15
2023-12-20T02:52:16.470Z,18.70
2023-12-20T02:55:20.230Z,18.83
2023-12-20T02:58:24.053Z,17.40
2023-12-20T03:01:29.277Z,17.52
2023-12-20T03:04:33.860Z,16.45
2023-12-20T03:07:40.132Z,15.88
2023-12-20T03:10:43.867Z,16.65
2023-12-20T03:13:47.460Z,17.17
2023-12-20T03:16:52.071Z,17.60
2023-12-20T03:19:55.613Z,17.02
2023-12-20T03:23:00.517Z,17.08
2023-12-20T03:26:04.914Z,16.70
2023-12-20T03:29:08.424Z,17.77
2023-12-20T03:32:12.054Z,18.25
2023-12-20T03:35:15.682Z,17.38
2023-12-20T03:38:20.893Z,17.42
2023-12-20T03:41:24.507Z,16.90
2023-12-20T03:44:30.106Z,18.00
2023-12-20T03:47:34.021Z,17.95
2023-12-20T03:50:38.020Z,18.02
2023-12-20T03:53:43.162Z,18.17
2023-12-20T03:56:50.677Z,17.83
2023-12-20T03:59:54.356Z,17.55
2023-12-20T04:02:57.917Z,18.20
2023-12-20T04:06:01.836Z,18.67
2023-12-20T04:09:06.826Z,18.23
2023-12-20T04:12:10.480Z,18.25
2023-12-20T04:15:14.620Z,18.30
2023-12-20T04:18:18.222Z,20.77
2023-12-20T04:21:21.782Z,18.90
2023-12-20T04:24:26.736Z,18.52
2023-12-20T04:27:30.345Z,18.70
2023-12-20T04:34:31.560Z,19.23
2023-12-20T04:37:35.182Z,19.38
2023-12-20T04:40:38.876Z,17.83
2023-12-20T04:43:42.451Z,17.60
2023-12-20T04:46:46.193Z,17.77
2023-12-20T04:49:51.352Z,18.40
2023-12-20T04:52:54.971Z,18.75
2023-12-20T04:55:58.466Z,19.17
2023-12-20T04:59:01.958Z,19.33
2023-12-20T05:02:05.832Z,19.40
2023-12-20T05:05:12.722Z,19.17
2023-12-20T05:08:16.645Z,19.13
2023-12-20T05:11:21.526Z,18.95
2023-12-20T05:14:25.854Z,17.63
2023-12-20T05:17:29.446Z,18.48
2023-12-20T05:20:34.795Z,18.20
2023-12-20T05:23:38.573Z,18.23
2023-12-20T05:26:42.094Z,17.80
2023-12-20T05:29:45.740Z,18.65
2023-12-20T05:32:49.698Z,18.23
2023-12-20T05:35:54.644Z,18.55
2023-12-20T05:38:58.635Z,18.10
2023-12-20T05:42:02.289Z,18.38
2023-12-20T05:45:07.191Z,18.58
2023-12-20T05:48:10.875Z,19.35
2023-12-20T05:51:16.021Z,18.35
2023-12-20T05:54:19.623Z,19.55
2023-12-20T05:57:24.405Z,18.10
2023-12-20T06:00:27.957Z,18.80
2023-12-20T06:03:31.628Z,18.23
2023-12-20T06:06:36.801Z,18.50
2023-12-20T06:09:40.810Z,19.23
2023-12-20T06:12:44.332Z,19.20
2023-12-20T06:15:48.304Z,18.63
2023-12-20T06:18:52.359Z,19.63
2023-12-20T06:21:57.492Z,19.38
2023-12-20T06:25:01.150Z,19.75
2023-12-20T06:28:05.092Z,19.38
2023-12-20T06:31:08.783Z,19.08
2023-12-20T06:34:12.548Z,19.33
2023-12-20T06:37:17.845Z,18.25
2023-12-20T06:40:26.008Z,19.13
2023-12-20T06:43:46.395Z,19.60
2023-12-20T06:46:53.426Z,20.13
2023-12-20T06:49:57.264Z,20.50
2023-12-20T06:53:07.972Z,20.20
2023-12-20T06:56:14.582Z,20.48
2023-12-20T06:59:19.729Z,21.20
2023-12-20T07:02:23.625Z,19.88
2023-12-20T07:05:27.810Z,20.92
2023-12-20T07:08:32.801Z,21.52
2023-12-20T07:11:36.479Z,21.35
2023-12-20T07:14:40.097Z,23.92
2023-12-20T07:17:45.051Z,23.38
2023-12-20T07:20:49.097Z,25.38
2023-12-20T07:23:54.181Z,24.35
2023-12-20T07:26:58.150Z,26.08
2023-12-20T07:30:01.841Z,24.25
2023-12-20T07:33:10.386Z,26.00
2023-12-20T07:36:15.289Z,25.33
2023-12-20T07:39:20.750Z,24.52
2023-12-20T07:42:24.341Z,22.90
2023-12-20T07:45:27.954Z,22.70
2023-12-20T07:48:31.502Z,19.77
2023-12-20T07:51:35.102Z,19.58
2023-12-20T07:54:40.483Z,20.35
2023-12-20T07:57:44.291Z,20.73
2023-12-20T08:00:48.133Z,21.45
2023-12-20T08:03:53.072Z,21.42
2023-12-20T08:06:58.016Z,18.63
2023-12-20T08:10:04.225Z,20.23
2023-12-20T08:13:10.420Z,20.08
2023-12-20T08:16:17.065Z,20.33
2023-12-20T08:19:22.585Z,18.73
2023-12-20T08:22:30.699Z,19.73
2023-12-20T08:25:42.260Z,16.80
2023-12-20T08:28:59.943Z,17.70
2023-12-20T08:32:09.445Z,16.50
2023-12-20T08:38:21.548Z,17.90
2023-12-20T08:41:28.253Z,16.03
2023-12-20T08:44:54.409Z,15.27
2023-12-20T08:48:34.149Z,15.93
2023-12-20T08:51:54.855Z,15.50
2023-12-20T08:54:59.934Z,13.15
2023-12-20T08:58:09.508Z,12.23
2023-12-20T09:01:14.356Z,12.52
2023-12-20T09:04:19.491Z,12.25
2023-12-20T09:07:42.540Z,12.35
2023-12-20T09:10:56.330Z,12.70
2023-12-20T09:14:14.631Z,13.40
2023-12-20T09:17:53.178Z,12.75
2023-12-20T09:21:01.481Z,14.38
2023-12-20T09:24:23.055Z,14.70
2023-12-20T09:31:22.284Z,13.00
2023-12-20T09:34:26.956Z,11.85
2023-12-20T09:37:30.932Z,10.18
2023-12-20T09:40:35.582Z,11.10
2023-12-20T09:43:39.960Z,9.50
2023-12-20T09:46:47.257Z,9.43
2023-12-20T09:49:52.990Z,10.03
2023-12-20T09:53:00.760Z,11.07
2023-12-20T09:56:06.088Z,9.00
2023-12-20T09:59:11.215Z,9.90
2023-12-20T10:02:17.864Z,7.38
2023-12-20T10:05:29.057Z,9.30
2023-12-20T10:08:33.433Z,8.45
2023-12-20T10:11:38.351Z,7.90
2023-12-20T10:14:42.211Z,8.85
2023-12-20T10:17:51.512Z,7.30
2023-12-20T10:20:55.549Z,8.00
2023-12-20T10:24:00.174Z,9.07
2023-12-20T10:27:06.213Z,10.75
2023-12-20T10:34:19.935Z,8.98
2023-12-20T10:37:24.207Z,8.38
2023-12-20T10:40:31.657Z,8.70
2023-12-20T10:43:36.193Z,8.00
2023-12-20T10:46:42.121Z,9.48
2023-12-20T10:49:48.151Z,7.70
2023-12-20T10:52:56.500Z,10.27
2023-12-20T10:56:04.949Z,8.95
2023-12-20T10:59:12.882Z,9.73
2023-12-20T11:02:16.532Z,7.95
2023-12-20T11:05:38.158Z,9.02
2023-12-20T11:08:50.026Z,10.27
2023-12-20T11:12:03.892Z,11.93
2023-12-20T11:15:09.665Z,11.32
2023-12-20T11:18:13.389Z,12.98
2023-12-20T11:21:18.431Z,11.30
2023-12-20T11:24:24.041Z,11.93
2023-12-20T11:27:27.668Z,14.45
2023-12-20T11:30:43.431Z,14.60
2023-12-20T11:33:49.598Z,14.27
2023-12-20T11:36:59.546Z,15.60
2023-12-20T11:40:05.084Z,15.50
2023-12-20T11:43:08.794Z,15.27
2023-12-20T11:46:13.151Z,14.75
2023-12-20T11:49:17.033Z,14.55
2023-12-20T11:52:23.935Z,15.70
2023-12-20T11:55:27.648Z,15.13
2023-12-20T11:58:32.282Z,15.50
2023-12-20T12:01:37.679Z,14.80
2023-12-20T12:04:43.601Z,14.80
2023-12-20T12:07:49.138Z,13.23
2023-12-20T12:10:53.330Z,13.57
2023-12-20T12:13:57.081Z,14.35
2023-12-20T12:17:00.729Z,11.02
2023-12-20T12:20:06.532Z,11.80
2023-12-20T12:23:11.642Z,11.15
2023-12-20T12:26:15.372Z,8.60
2023-12-20T12:29:19.216Z,9.43
2023-12-20T12:32:22.755Z,12.50
2023-12-20T12:35:26.533Z,13.18
2023-12-20T12:38:32.370Z,12.82
2023-12-20T12:41:36.022Z,10.95
2023-12-20T12:44:39.666Z,12.32
2023-12-20T12:47:43.683Z,11.65
2023-12-20T12:50:48.411Z,11.50
2023-12-20T12:53:53.508Z,11.98
2023-12-20T12:57:00.115Z,10.23
2023-12-20T13:00:05.332Z,11.77
2023-12-20T13:03:11.563Z,9.63
2023-12-20T13:06:15.467Z,11.02
2023-12-20T13:09:20.664Z,11.57
2023-12-20T13:12:24.218Z,11.35
2023-12-20T13:15:27.808Z,12.13
2023-12-20T13:18:31.495Z,11.80
2023-12-20T13:21:35.465Z,10.02
2023-12-20T13:24:41.513Z,11.43
2023-12-20T13:27:45.782Z,10.10
2023-12-20T13:30:49.785Z,9.43
2023-12-20T13:33:53.863Z,9.57
2023-12-20T13:36:57.910Z,8.73
2023-12-20T13:40:04.436Z,10.02
2023-12-20T13:43:08.146Z,10.15
2023-12-20T13:46:11.738Z,9.30
2023-12-20T13:49:15.767Z,10.68
2023-12-20T13:52:19.809Z,11.93
2023-12-20T13:55:26.395Z,11.15
2023-12-20T13:58:30.221Z,11.80
2023-12-20T14:01:33.800Z,9.57
2023-12-20T14:04:42.116Z,9.85
2023-12-20T14:07:47.916Z,8.52
2023-12-20T14:10:53.238Z,10.27
2023-12-20T14:13:59.022Z,13.30
2023-12-20T14:17:03.053Z,9.00
2023-12-20T14:20:09.082Z,11.27
2023-12-20T14:23:13.132Z,11.18
2023-12-20T14:26:18.156Z,12.00
2023-12-20T14:29:22.255Z,11.40
2023-12-20T14:32:27.709Z,12.40
2023-12-20T14:35:32.343Z,13.55
2023-12-20T14:38:36.459Z,14.05
2023-12-20T14:41:42.087Z,12.57
2023-12-20T14:44:45.817Z,13.77
2023-12-20T14:47:50.956Z,13.82
2023-12-20T14:50:54.795Z,13.50
2023-12-20T14:53:58.883Z,12.55
2023-12-20T14:57:05.701Z,14.60
2023-12-20T15:00:10.187Z,14.85
2023-12-20T15:03:14.299Z,17.30
2023-12-20T15:06:38.282Z,14.90
2023-12-20T15:11:03.953Z,15.98
2023-12-20T15:14:42.504Z,16.05
2023-12-20T15:23:16.113Z,14.65
2023-12-20T15:29:41.068Z,16.33
2023-12-20T15:34:57.300Z,15.98
2023-12-20T15:38:01.444Z,14.63
2023-12-20T15:41:08.587Z,15.95
2023-12-20T15:44:12.167Z,15.10
2023-12-20T15:47:19.299Z,15.27
2023-12-20T15:50:23.120Z,12.68
2023-12-20T15:53:26.936Z,13.65
2023-12-20T15:56:30.710Z,13.10
2023-12-20T15:59:34.531Z,14.13
2023-12-20T16:02:39.838Z,13.32
2023-12-20T16:05:43.614Z,11.35
2023-12-20T16:08:47.198Z,14.15
2023-12-20T16:11:51.005Z,13.90
2023-12-20T16:14:55.373Z,13.63
2023-12-20T16:18:00.354Z,12.88
2023-12-20T16:21:06.777Z,12.93
2023-12-20T16:24:10.609Z,11.23
2023-12-20T16:27:24.683Z,12.60
2023-12-20T16:34:19.892Z,11.52
2023-12-20T16:37:23.428Z,12.27
2023-12-20T16:40:27.212Z,13.63
2023-12-20T16:43:31.100Z,12.32
2023-12-20T16:46:35.147Z,12.23
2023-12-20T16:49:40.408Z,12.48
2023-12-20T16:52:44.142Z,13.27
2023-12-20T16:55:47.711Z,14.32
2023-12-20T16:58:51.214Z,13.60
2023-12-20T17:01:55.442Z,15.00
2023-12-20T17:05:00.708Z,13.43
2023-12-20T17:08:06.904Z,12.77
2023-12-20T17:11:26.562Z,12.40
2023-12-20T17:14:58.003Z,13.13
2023-12-20T17:18:21.618Z,13.10
2023-12-20T17:21:47.573Z,12.80
2023-12-20T17:25:25.563Z,13.40
2023-12-20T17:28:30.401Z,13.82
2023-12-20T17:31:34.015Z,11.85
2023-12-20T17:34:38.672Z,12.95
2023-12-20T17:37:43.847Z,14.70
2023-12-20T17:40:47.909Z,13.50
2023-12-20T17:43:51.540Z,13.10
2023-12-20T17:46:55.810Z,13.35
2023-12-20T17:49:59.530Z,13.20
2023-12-20T17:53:04.512Z,12.43
2023-12-20T17:56:08.888Z,12.45
2023-12-20T17:59:12.452Z,12.38
2023-12-20T18:02:16.096Z,13.43
2023-12-20T18:05:19.981Z,12.82
2023-12-20T18:08:25.295Z,13.27
2023-12-20T18:11:28.834Z,10.00
2023-12-20T18:14:32.570Z,10.57
2023-12-20T18:17:36.245Z,11.95
2023-12-20T18:20:43.346Z,13.65
2023-12-20T18:27:47.422Z,12.85
2023-12-20T18:31:32.187Z,18.00
2023-12-20T18:35:57.729Z,19.65
2023-12-20T18:44:42.038Z,17.73
2023-12-20T18:47:46.865Z,18.25
2023-12-20T18:50:50.716Z,20.30
2023-12-20T18:53:55.459Z,19.35
2023-12-20T18:57:00.632Z,17.23
2023-12-20T19:00:05.370Z,18.70
2023-12-20T19:03:22.057Z,20.10
2023-12-20T19:06:39.246Z,17.63
2023-12-20T19:12:49.148Z,18.60
2023-12-20T19:15:53.148Z,18.70
2023-12-20T19:18:57.255Z,19.05
2023-12-20T19:22:01.148Z,16.20
2023-12-20T19:25:09.415Z,17.27
2023-12-20T19:28:14.698Z,10.25
2023-12-20T19:31:18.497Z,8.27
2023-12-20T19:34:22.148Z,6.88
2023-12-20T19:37:25.709Z,8.23
2023-12-20T19:40:29.406Z,7.80
2023-12-20T19:43:34.521Z,11.27
2023-12-20T19:46:38.615Z,6.22
2023-12-20T19:49:42.758Z,7.65
2023-12-20T19:52:47.044Z,6.13
2023-12-20T19:55:50.727Z,5.70
2023-12-20T19:58:56.844Z,19.65
2023-12-20T20:02:01.896Z,6.13
2023-12-20T20:05:07.947Z,5.93
2023-12-20T20:08:43.990Z,5.75
2023-12-20T20:16:39.887Z,5.93
2023-12-20T20:19:44.008Z,4.35
2023-12-20T20:22:48.101Z,4.13
2023-12-20T20:25:52.089Z,4.80
2023-12-20T20:28:55.820Z,5.47
2023-12-20T20:32:00.848Z,5.05
2023-12-20T20:35:04.594Z,4.18
2023-12-20T20:38:08.237Z,4.28
2023-12-20T20:41:11.693Z,4.50
2023-12-20T20:44:17.475Z,4.00
2023-12-20T20:47:26.335Z,5.22
2023-12-20T20:50:31.371Z,4.45
2023-12-20T20:53:35.163Z,4.93
2023-12-20T20:56:39.658Z,4.35
2023-12-20T20:59:44.712Z,4.68
2023-12-20T21:02:50.054Z,4.20
2023-12-20T21:05:53.847Z,5.20
2023-12-20T21:08:57.614Z,5.03
2023-12-20T21:12:01.272Z,4.10
2023-12-20T21:15:05.713Z,3.88
2023-12-20T21:18:11.575Z,4.18
2023-12-20T21:21:15.320Z,3.67
2023-12-20T21:24:18.945Z,5.65
2023-12-20T21:27:22.531Z,3.50
2023-12-20T21:30:26.257Z,3.47
2023-12-20T21:33:31.627Z,3.58
2023-12-20T21:36:36.301Z,3.50
2023-12-20T21:39:39.958Z,6.35
2023-12-20T21:42:43.550Z,11.88
2023-12-20T21:45:47.916Z,7.88
2023-12-20T21:48:52.815Z,3.40
2023-12-20T21:51:56.705Z,3.90
2023-12-20T21:55:00.381Z,4.97
2023-12-20T21:58:04.035Z,4.22
2023-12-20T22:01:08.651Z,3.80
2023-12-20T22:04:13.913Z,3.63
2023-12-20T22:07:17.775Z,3.22
2023-12-20T22:10:21.337Z,4.05
2023-12-20T22:13:25.128Z,3.60
2023-12-20T22:16:28.924Z,3.70
2023-12-20T22:19:34.119Z,3.50
2023-12-20T22:22:37.837Z,3.53
2023-12-20T22:25:41.591Z,3.33
2023-12-20T22:28:45.198Z,2.97
2023-12-20T22:34:19.502Z,4.57
2023-12-20T22:37:23.183Z,3.95
2023-12-20T22:40:26.838Z,4.05
2023-12-20T22:43:30.588Z,4.20
2023-12-20T22:46:34.915Z,4.47
2023-12-20T22:49:39.888Z,4.03
2023-12-20T22:52:43.719Z,12.88
2023-12-20T22:55:49.294Z,5.13
2023-12-20T22:58:52.894Z,9.50
2023-12-20T23:01:56.483Z,5.60
2023-12-20T23:05:01.519Z,7.13
2023-12-20T23:08:06.077Z,5.28
2023-12-20T23:11:09.820Z,4.70
2023-12-20T23:14:16.740Z,4.85
2023-12-20T23:17:20.844Z,4.00
2023-12-20T23:20:25.841Z,8.63
2023-12-20T23:23:29.345Z,6.43
2023-12-20T23:26:32.958Z,4.60
2023-12-20T23:29:36.870Z,5.05
2023-12-20T23:32:40.547Z,4.10
2023-12-20T23:35:45.735Z,4.20
2023-12-20T23:38:49.359Z,5.50
2023-12-20T23:41:52.957Z,9.15
2023-12-20T23:44:56.521Z,3.90
2023-12-20T23:48:00.227Z,3.60
2023-12-20T23:51:05.256Z,3.25
2023-12-20T23:54:08.830Z,5.03
2023-12-20T23:57:12.403Z,3.50
